createdAt,value
2019-02-16T00:01:24.364Z,22.60
2019-02-16T00:03:55.136Z,25.10
2019-02-16T00:06:25.886Z,28.53
2019-02-16T00:08:56.656Z,25.43
2019-02-16T00:11:27.442Z,28.57
2019-02-16T00:13:58.206Z,25.97
2019-02-16T00:16:28.964Z,25.00
2019-02-16T00:18:59.742Z,20.80
2019-02-16T00:21:30.494Z,23.73
2019-02-16T00:24:01.264Z,23.30
2019-02-16T00:26:32.013Z,21.43
2019-02-16T00:29:02.773Z,19.60
2019-02-16T00:31:33.529Z,22.40
2019-02-16T00:34:04.301Z,23.43
2019-02-16T00:36:35.057Z,22.13
2019-02-16T00:39:05.814Z,23.10
2019-02-16T00:41:36.579Z,25.30
2019-02-16T00:44:07.346Z,20.00
2019-02-16T00:46:38.109Z,25.67
2019-02-16T00:49:08.882Z,22.23
2019-02-16T00:51:39.641Z,23.03
2019-02-16T00:54:10.407Z,23.43
2019-02-16T00:56:41.164Z,23.37
2019-02-16T00:59:11.931Z,25.63
2019-02-16T01:01:42.687Z,24.40
2019-02-16T01:04:13.451Z,27.97
2019-02-16T01:06:44.269Z,28.37
2019-02-16T01:09:14.965Z,23.27
2019-02-16T01:11:45.746Z,26.97
2019-02-16T01:14:16.515Z,26.37
2019-02-16T01:16:47.331Z,29.23
2019-02-16T01:19:18.045Z,29.07
2019-02-16T01:21:48.799Z,24.50
2019-02-16T01:24:19.576Z,20.60
2019-02-16T01:26:50.331Z,20.00
2019-02-16T01:29:21.100Z,22.40
2019-02-16T01:31:51.862Z,32.27
2019-02-16T01:34:22.633Z,21.83
2019-02-16T01:36:53.395Z,27.00
2019-02-16T01:39:24.167Z,25.13
2019-02-16T01:41:54.919Z,22.07
2019-02-16T01:44:25.683Z,23.00
2019-02-16T01:46:56.453Z,28.00
2019-02-16T01:49:27.225Z,22.77
2019-02-16T01:51:57.990Z,26.00
2019-02-16T01:54:28.757Z,27.67
2019-02-16T01:56:59.516Z,25.47
2019-02-16T01:59:30.288Z,19.33
2019-02-16T02:02:01.050Z,28.27
2019-02-16T02:04:31.836Z,27.60
2019-02-16T02:07:02.597Z,21.10
2019-02-16T02:09:33.362Z,21.23
2019-02-16T02:12:04.122Z,21.70
2019-02-16T02:14:34.907Z,21.37
2019-02-16T02:17:05.928Z,20.97
2019-02-16T02:19:36.690Z,25.48
2019-02-16T02:22:07.484Z,22.57
2019-02-16T02:24:38.240Z,26.23
2019-02-16T02:27:08.998Z,22.83
2019-02-16T02:29:39.777Z,23.27
2019-02-16T02:32:10.514Z,23.40
2019-02-16T02:34:41.301Z,20.53
2019-02-16T02:37:12.077Z,23.60
2019-02-16T02:39:42.865Z,22.30
2019-02-16T02:42:13.646Z,27.73
2019-02-16T02:44:44.430Z,25.00
2019-02-16T02:47:15.214Z,23.07
2019-02-16T02:49:46.003Z,24.50
2019-02-16T02:52:16.773Z,27.70
2019-02-16T02:54:47.533Z,25.23
2019-02-16T02:57:18.331Z,21.60
2019-02-16T02:59:49.077Z,20.67
2019-02-16T03:02:19.854Z,24.93
2019-02-16T03:04:50.614Z,20.20
2019-02-16T03:07:21.701Z,20.83
2019-02-16T03:09:52.471Z,22.55
2019-02-16T03:12:23.240Z,21.90
2019-02-16T03:14:54.054Z,22.83
2019-02-16T03:17:24.827Z,22.77
2019-02-16T03:19:55.580Z,19.17
2019-02-16T03:22:56.296Z,18.03
2019-02-16T03:25:27.073Z,18.42
2019-02-16T03:28:24.631Z,18.03
2019-02-16T03:30:59.190Z,18.85
2019-02-16T03:33:39.526Z,20.32
2019-02-16T03:36:14.098Z,18.52
2019-02-16T03:38:48.676Z,25.00
2019-02-16T03:41:19.442Z,17.95
2019-02-16T03:43:50.198Z,18.17
2019-02-16T03:46:21.330Z,18.67
2019-02-16T03:48:52.109Z,20.35
2019-02-16T03:51:22.907Z,21.40
2019-02-16T03:53:53.667Z,20.90
2019-02-16T03:56:24.426Z,18.60
2019-02-16T03:58:55.204Z,20.87
2019-02-16T04:01:25.968Z,26.60
2019-02-16T04:03:56.746Z,20.90
2019-02-16T04:06:27.508Z,22.30
2019-02-16T04:08:58.276Z,20.63
2019-02-16T04:11:29.035Z,23.97
2019-02-16T04:13:59.801Z,22.90
2019-02-16T04:16:30.560Z,21.63
2019-02-16T04:19:01.321Z,20.40
2019-02-16T04:21:32.180Z,27.40
2019-02-16T04:24:02.960Z,22.03
2019-02-16T04:26:34.049Z,26.63
2019-02-16T04:29:04.830Z,19.80
2019-02-16T04:31:35.593Z,23.60
2019-02-16T04:34:06.351Z,25.20
2019-02-16T04:36:37.104Z,24.63
2019-02-16T04:39:07.909Z,19.70
2019-02-16T04:41:38.663Z,25.50
2019-02-16T04:44:09.432Z,24.50
2019-02-16T04:46:40.187Z,22.30
2019-02-16T04:49:10.973Z,21.70
2019-02-16T04:51:41.734Z,23.73
2019-02-16T04:54:12.842Z,22.70
2019-02-16T04:56:43.596Z,24.40
2019-02-16T04:59:14.358Z,19.90
2019-02-16T05:01:45.118Z,23.00
2019-02-16T05:04:15.892Z,22.70
2019-02-16T05:06:46.687Z,22.70
2019-02-16T05:09:17.455Z,23.67
2019-02-16T05:11:48.670Z,22.23
2019-02-16T05:14:19.503Z,23.27
2019-02-16T05:16:50.253Z,21.97
2019-02-16T05:19:21.017Z,26.63
2019-02-16T05:21:51.783Z,25.80
2019-02-16T05:24:22.552Z,23.23
2019-02-16T05:26:53.346Z,25.57
2019-02-16T05:29:24.128Z,22.37
2019-02-16T05:31:54.878Z,23.57
2019-02-16T05:34:25.649Z,19.43
2019-02-16T05:36:56.405Z,23.70
2019-02-16T05:39:27.171Z,20.80
2019-02-16T05:41:57.922Z,24.67
2019-02-16T05:44:28.704Z,18.80
2019-02-16T05:46:59.472Z,20.70
2019-02-16T05:49:30.242Z,21.53
2019-02-16T05:52:00.996Z,26.30
2019-02-16T05:54:31.759Z,28.13
2019-02-16T05:57:02.511Z,22.87
2019-02-16T05:59:33.270Z,18.97
2019-02-16T06:02:04.026Z,20.37
2019-02-16T06:04:34.783Z,28.33
2019-02-16T06:07:05.541Z,25.40
2019-02-16T06:09:36.305Z,23.90
2019-02-16T06:12:07.061Z,24.47
2019-02-16T06:14:37.819Z,23.77
2019-02-16T06:17:08.576Z,21.60
2019-02-16T06:19:39.339Z,22.83
2019-02-16T06:22:10.095Z,24.17
2019-02-16T06:24:40.859Z,24.17
2019-02-16T06:27:11.618Z,25.00
2019-02-16T06:29:42.389Z,23.07
2019-02-16T06:32:13.151Z,20.90
2019-02-16T06:34:43.948Z,21.90
2019-02-16T06:37:16.617Z,20.70
2019-02-16T06:39:48.190Z,22.93
2019-02-16T06:42:19.064Z,19.85
2019-02-16T06:44:49.821Z,18.93
2019-02-16T06:47:20.588Z,21.80
2019-02-16T06:49:51.360Z,22.43
2019-02-16T06:52:22.117Z,19.83
2019-02-16T06:54:52.915Z,21.53
2019-02-16T06:57:25.372Z,20.87
2019-02-16T06:59:56.182Z,22.98
2019-02-16T07:02:28.429Z,21.70
2019-02-16T07:04:59.226Z,22.42
2019-02-16T07:07:29.979Z,21.97
2019-02-16T07:10:01.188Z,22.47
2019-02-16T07:12:31.952Z,20.82
2019-02-16T07:15:04.819Z,21.90
2019-02-16T07:17:37.497Z,22.65
2019-02-16T07:20:08.485Z,20.08
2019-02-16T07:22:39.250Z,21.65
2019-02-16T07:25:10.111Z,22.47
2019-02-16T07:27:40.881Z,22.07
2019-02-16T07:30:11.632Z,21.20
2019-02-16T07:32:42.400Z,23.40
2019-02-16T07:35:13.183Z,18.83
2019-02-16T07:37:44.269Z,21.50
2019-02-16T07:40:15.029Z,22.82
2019-02-16T07:42:47.705Z,21.57
2019-02-16T07:45:31.221Z,26.17
2019-02-16T07:48:06.449Z,22.35
2019-02-16T07:50:47.847Z,21.50
2019-02-16T07:53:20.516Z,20.43
2019-02-16T07:55:55.722Z,23.98
2019-02-16T07:58:37.298Z,26.30
2019-02-16T08:01:09.980Z,25.55
2019-02-16T08:03:58.077Z,21.15
2019-02-16T08:06:36.584Z,21.95
2019-02-16T08:09:09.259Z,24.63
2019-02-16T08:11:41.936Z,20.30
2019-02-16T08:14:14.606Z,21.75
2019-02-16T08:16:47.292Z,19.92
2019-02-16T08:19:23.224Z,21.77
2019-02-16T08:21:58.740Z,20.88
2019-02-16T08:24:31.395Z,14.90
2019-02-16T08:27:04.068Z,16.07
2019-02-16T08:29:53.408Z,14.00
2019-02-16T08:32:34.975Z,13.75
2019-02-16T08:35:10.417Z,12.58
2019-02-16T08:37:59.805Z,14.45
2019-02-16T08:40:32.471Z,15.43
2019-02-16T08:43:05.192Z,14.23
2019-02-16T08:45:49.728Z,14.68
2019-02-16T08:48:27.955Z,12.25
2019-02-16T08:51:15.564Z,14.10
2019-02-16T08:53:57.101Z,11.95
2019-02-16T08:56:35.590Z,10.30
2019-02-16T08:59:08.276Z,11.68
2019-02-16T09:01:43.736Z,9.93
2019-02-16T09:04:16.409Z,12.65
2019-02-16T09:06:51.919Z,13.05
2019-02-16T09:09:42.570Z,17.55
2019-02-16T09:12:15.242Z,16.17
2019-02-16T09:14:50.970Z,12.28
2019-02-16T09:17:29.934Z,12.55
2019-02-16T09:20:02.608Z,11.05
2019-02-16T09:22:35.307Z,11.33
2019-02-16T09:25:10.986Z,11.97
2019-02-16T09:27:49.461Z,14.00
2019-02-16T09:30:25.014Z,12.13
2019-02-16T09:32:57.701Z,10.90
2019-02-16T09:35:33.149Z,12.60
2019-02-16T09:38:08.595Z,10.60
2019-02-16T09:40:47.148Z,12.10
2019-02-16T09:43:19.844Z,12.78
2019-02-16T09:46:04.186Z,12.23
2019-02-16T09:48:42.443Z,12.30
2019-02-16T09:51:15.107Z,14.28
2019-02-16T09:53:50.806Z,11.55
2019-02-16T09:56:23.475Z,16.02
2019-02-16T09:59:11.356Z,14.30
2019-02-16T10:01:44.013Z,15.75
2019-02-16T10:04:16.689Z,16.77
2019-02-16T10:06:51.865Z,14.25
2019-02-16T10:09:30.326Z,14.07
2019-02-16T10:12:08.550Z,16.37
2019-02-16T10:14:43.761Z,15.08
2019-02-16T10:17:22.090Z,14.50
2019-02-16T10:20:00.744Z,16.52
2019-02-16T10:22:36.343Z,16.17
2019-02-16T10:25:17.819Z,18.70
2019-02-16T10:28:07.327Z,16.25
2019-02-16T10:30:40.001Z,18.07
2019-02-16T10:33:28.239Z,16.27
2019-02-16T10:36:03.391Z,18.35
2019-02-16T10:38:44.942Z,16.45
2019-02-16T10:41:35.947Z,15.85
2019-02-16T10:44:08.620Z,17.12
2019-02-16T10:46:46.911Z,16.42
2019-02-16T10:49:19.588Z,15.18
2019-02-16T10:51:58.066Z,16.30
2019-02-16T10:54:33.524Z,16.65
2019-02-16T10:57:11.795Z,16.20
2019-02-16T10:59:45.942Z,15.60
2019-02-16T11:02:18.722Z,16.00
2019-02-16T11:05:06.488Z,14.87
2019-02-16T11:07:48.011Z,17.15
2019-02-16T11:10:26.230Z,16.35
2019-02-16T11:13:05.137Z,21.23
2019-02-16T11:15:37.804Z,17.70
2019-02-16T11:18:22.571Z,15.28
2019-02-16T11:21:11.937Z,19.25
2019-02-16T11:23:59.755Z,16.57
2019-02-16T11:26:35.212Z,16.07
2019-02-16T11:29:13.826Z,17.10
2019-02-16T11:31:52.516Z,15.63
2019-02-16T11:34:30.977Z,16.02
2019-02-16T11:37:06.335Z,17.27
2019-02-16T11:39:39.013Z,20.48
2019-02-16T11:42:28.102Z,15.30
2019-02-16T11:45:00.777Z,17.17
2019-02-16T11:47:51.307Z,16.95
2019-02-16T11:50:23.991Z,18.57
2019-02-16T11:53:13.379Z,14.77
2019-02-16T11:55:58.206Z,15.43
2019-02-16T11:58:45.962Z,16.00
2019-02-16T12:01:24.470Z,15.27
2019-02-16T12:04:03.218Z,14.87
2019-02-16T12:06:52.505Z,13.70
2019-02-16T12:09:41.818Z,17.67
2019-02-16T12:12:23.351Z,13.85
2019-02-16T12:15:11.288Z,14.83
2019-02-16T12:17:43.957Z,16.20
2019-02-16T12:20:19.310Z,15.80
2019-02-16T12:23:00.727Z,16.07
2019-02-16T12:25:33.497Z,18.27
2019-02-16T12:28:09.234Z,17.05
2019-02-16T12:30:41.895Z,17.50
2019-02-16T12:33:17.452Z,15.53
2019-02-16T12:35:55.853Z,16.32
2019-02-16T12:38:37.850Z,19.60
2019-02-16T12:41:10.515Z,16.15
2019-02-16T12:43:46.592Z,16.85
2019-02-16T12:46:28.252Z,16.30
2019-02-16T12:49:01.197Z,15.70
2019-02-16T12:51:36.433Z,14.23
2019-02-16T12:54:09.114Z,18.47
2019-02-16T12:56:53.705Z,14.90
2019-02-16T12:59:26.439Z,14.97
2019-02-16T13:02:07.908Z,16.67
2019-02-16T13:04:40.642Z,16.43
2019-02-16T13:07:18.814Z,17.03
2019-02-16T13:09:51.531Z,16.23
2019-02-16T13:12:26.974Z,16.73
2019-02-16T13:15:02.421Z,14.73
2019-02-16T13:17:35.085Z,15.67
2019-02-16T13:20:08.977Z,16.00
2019-02-16T13:22:41.652Z,16.40
2019-02-16T13:25:24.485Z,18.40
2019-02-16T13:27:57.464Z,14.07
2019-02-16T13:30:38.860Z,14.63
2019-02-16T13:33:20.439Z,16.03
2019-02-16T13:35:58.898Z,14.83
2019-02-16T13:38:49.692Z,13.80
2019-02-16T13:41:22.371Z,12.93
2019-02-16T13:43:55.065Z,15.10
2019-02-16T13:46:30.665Z,12.93
2019-02-16T13:49:03.385Z,14.20
2019-02-16T13:51:38.847Z,13.70
2019-02-16T13:54:14.043Z,17.57
2019-02-16T13:56:49.498Z,13.60
2019-02-16T13:59:24.916Z,13.53
2019-02-16T14:02:00.621Z,14.10
2019-02-16T14:04:33.287Z,13.50
2019-02-16T14:07:08.744Z,13.67
2019-02-16T14:09:59.592Z,16.03
2019-02-16T14:12:38.077Z,14.73
2019-02-16T14:15:19.854Z,13.60
2019-02-16T14:17:53.433Z,12.77
2019-02-16T14:20:24.211Z,13.13
2019-02-16T14:22:54.992Z,15.10
2019-02-16T14:25:27.669Z,13.67
2019-02-16T14:27:58.426Z,14.07
2019-02-16T14:30:29.192Z,13.33
2019-02-16T14:32:59.952Z,14.53
2019-02-16T14:35:30.718Z,14.27
2019-02-16T14:38:05.925Z,12.37
2019-02-16T14:40:36.694Z,13.33
2019-02-16T14:43:07.459Z,13.00
2019-02-16T14:45:38.927Z,12.87
2019-02-16T14:48:09.722Z,13.07
2019-02-16T14:50:40.823Z,12.83
2019-02-16T14:53:11.591Z,13.80
2019-02-16T14:55:51.589Z,12.90
2019-02-16T14:58:15.059Z,13.90
2019-02-16T15:00:45.831Z,13.53
2019-02-16T15:03:16.600Z,14.17
2019-02-16T15:05:47.452Z,14.87
2019-02-16T15:08:18.236Z,13.60
2019-02-16T15:10:49.002Z,12.70
2019-02-16T15:13:19.776Z,12.00
2019-02-16T15:15:50.536Z,13.33
2019-02-16T15:18:21.307Z,15.07
2019-02-16T15:20:52.083Z,14.07
2019-02-16T15:23:22.872Z,12.07
2019-02-16T15:26:00.695Z,11.40
2019-02-16T15:28:26.336Z,13.07
2019-02-16T15:30:57.108Z,11.37
2019-02-16T15:33:27.855Z,13.47
2019-02-16T15:35:58.623Z,10.83
2019-02-16T15:38:29.385Z,12.83
2019-02-16T15:41:00.145Z,12.93
2019-02-16T15:43:30.889Z,11.67
2019-02-16T15:46:01.672Z,12.60
2019-02-16T15:48:32.430Z,12.70
2019-02-16T15:51:03.227Z,14.03
2019-02-16T15:53:33.990Z,13.20
2019-02-16T15:56:10.448Z,13.67
2019-02-16T15:58:37.571Z,12.67
2019-02-16T16:01:08.502Z,11.20
2019-02-16T16:03:39.295Z,12.20
2019-02-16T16:06:10.071Z,11.33
2019-02-16T16:08:51.568Z,11.50
2019-02-16T16:11:26.154Z,13.75
2019-02-16T16:14:06.499Z,12.23
2019-02-16T16:16:55.857Z,14.43
2019-02-16T16:19:28.514Z,13.15
2019-02-16T16:22:01.204Z,14.15
2019-02-16T16:24:33.926Z,12.10
2019-02-16T16:27:23.382Z,14.98
2019-02-16T16:30:05.088Z,15.63
2019-02-16T16:33:07.451Z,14.80
2019-02-16T16:35:52.205Z,14.28
2019-02-16T16:38:36.896Z,13.65
2019-02-16T16:41:09.824Z,13.80
2019-02-16T16:43:42.490Z,15.48
2019-02-16T16:46:31.628Z,18.65
2019-02-16T16:54:34.759Z,13.90
2019-02-16T16:57:07.466Z,13.72
2019-02-16T16:59:40.135Z,18.00
2019-02-16T17:02:12.905Z,18.25
2019-02-16T17:04:51.672Z,17.42
2019-02-16T17:07:24.896Z,16.93
2019-02-16T17:10:03.550Z,16.65
2019-02-16T17:12:53.131Z,18.57
2019-02-16T17:15:34.800Z,17.32
2019-02-16T17:18:10.118Z,16.70
2019-02-16T17:20:45.240Z,17.57
2019-02-16T17:23:17.913Z,19.30
2019-02-16T17:25:59.589Z,17.73
2019-02-16T17:28:38.320Z,17.65
2019-02-16T17:31:10.993Z,16.93
2019-02-16T17:33:55.797Z,15.72
2019-02-16T17:36:28.471Z,19.70
2019-02-16T17:39:03.985Z,20.32
2019-02-16T17:41:36.665Z,18.77
2019-02-16T17:44:15.129Z,15.88
2019-02-16T17:46:47.801Z,17.98
2019-02-16T17:49:23.249Z,19.45
2019-02-16T17:51:58.965Z,17.12
2019-02-16T17:54:46.510Z,19.62
2019-02-16T17:57:19.183Z,18.42
2019-02-16T17:59:51.866Z,16.23
2019-02-16T18:02:30.797Z,23.77
2019-02-16T18:05:09.298Z,19.92
2019-02-16T18:07:58.619Z,19.85
2019-02-16T18:10:37.206Z,17.52
2019-02-16T18:13:15.499Z,16.37
2019-02-16T18:15:48.184Z,23.05
2019-02-16T18:18:37.876Z,17.05
2019-02-16T18:21:10.566Z,17.57
2019-02-16T18:23:43.238Z,20.57
2019-02-16T18:26:15.904Z,17.45
2019-02-16T18:29:00.594Z,18.02
2019-02-16T18:31:39.586Z,21.10
2019-02-16T18:34:15.175Z,18.75
2019-02-16T18:36:56.932Z,18.05
2019-02-16T18:39:38.446Z,15.43
2019-02-16T18:42:11.118Z,18.42
2019-02-16T18:44:55.884Z,17.90
2019-02-16T18:47:31.518Z,15.98
2019-02-16T18:50:20.160Z,18.07
2019-02-16T18:53:07.948Z,20.17
2019-02-16T18:55:46.405Z,18.30
2019-02-16T18:58:21.607Z,19.55
2019-02-16T19:00:54.253Z,18.48
2019-02-16T19:03:45.200Z,18.27
2019-02-16T19:06:17.921Z,18.77
2019-02-16T19:08:53.531Z,17.07
2019-02-16T19:11:28.976Z,17.90
2019-02-16T19:14:01.640Z,20.92
2019-02-16T19:16:50.925Z,15.15
2019-02-16T19:19:26.359Z,16.50
2019-02-16T19:21:59.036Z,18.00
2019-02-16T19:24:34.241Z,23.67
2019-02-16T19:27:16.418Z,17.82
2019-02-16T19:30:00.756Z,23.40
2019-02-16T19:32:36.227Z,24.18
2019-02-16T19:35:11.559Z,21.57
2019-02-16T19:37:53.008Z,21.12
2019-02-16T19:40:28.450Z,23.05
2019-02-16T19:43:01.118Z,25.25
2019-02-16T19:45:39.724Z,26.65
2019-02-16T19:48:21.255Z,23.92
2019-02-16T19:51:10.599Z,24.32
2019-02-16T19:53:46.030Z,24.32
2019-02-16T19:56:18.687Z,23.67
2019-02-16T19:58:51.369Z,21.65
2019-02-16T20:01:33.329Z,22.02
2019-02-16T20:04:14.903Z,26.00
2019-02-16T20:06:47.576Z,23.57
2019-02-16T20:09:23.048Z,25.52
2019-02-16T20:11:55.710Z,21.45
2019-02-16T20:14:34.102Z,23.30
2019-02-16T20:17:12.354Z,24.87
2019-02-16T20:19:53.630Z,21.87
2019-02-16T20:22:31.916Z,23.90
2019-02-16T20:25:13.942Z,26.85
2019-02-16T20:27:46.602Z,24.43
2019-02-16T20:30:36.100Z,28.67
2019-02-16T20:33:08.788Z,25.97
2019-02-16T20:35:41.456Z,27.22
2019-02-16T20:38:22.974Z,26.12
2019-02-16T20:40:58.178Z,30.75
2019-02-16T20:44:00.556Z,30.30
2019-02-16T20:46:33.153Z,27.48
2019-02-16T20:49:05.837Z,26.05
2019-02-16T20:51:38.494Z,24.05
2019-02-16T20:54:19.978Z,24.40
2019-02-16T20:56:58.700Z,25.00
2019-02-16T20:59:49.580Z,25.85
2019-02-16T21:02:22.243Z,26.30
2019-02-16T21:04:54.912Z,23.87
2019-02-16T21:07:30.619Z,29.98
2019-02-16T21:10:03.298Z,27.17
2019-02-16T21:12:38.981Z,23.90
2019-02-16T21:15:14.422Z,25.82
2019-02-16T21:18:05.536Z,31.23
2019-02-16T21:20:41.009Z,35.15
2019-02-16T21:23:25.577Z,34.30
2019-02-16T21:26:14.657Z,25.23
2019-02-16T21:28:59.082Z,27.70
2019-02-16T21:31:34.737Z,31.97
2019-02-16T21:34:24.226Z,23.65
2019-02-16T21:36:59.657Z,30.77
2019-02-16T21:39:41.384Z,24.23
2019-02-16T21:42:14.037Z,27.20
2019-02-16T21:44:46.710Z,22.42
2019-02-16T21:47:19.369Z,29.75
2019-02-16T21:50:00.668Z,26.20
2019-02-16T21:52:36.451Z,27.13
2019-02-16T21:55:15.180Z,27.20
2019-02-16T21:58:07.973Z,27.55
2019-02-16T22:00:51.789Z,26.37
2019-02-16T22:03:41.322Z,27.73
2019-02-16T22:06:22.781Z,27.20
2019-02-16T22:08:55.473Z,20.40
2019-02-16T22:11:28.141Z,25.10
2019-02-16T22:13:58.897Z,23.70
2019-02-16T22:16:29.669Z,27.53
2019-02-16T22:19:00.414Z,26.43
2019-02-16T22:21:31.178Z,22.13
2019-02-16T22:24:02.947Z,29.73
2019-02-16T22:26:33.733Z,29.72
2019-02-16T22:29:04.490Z,30.23
2019-02-16T22:31:35.265Z,28.27
2019-02-16T22:34:06.032Z,27.47
2019-02-16T22:36:36.794Z,24.60
2019-02-16T22:39:07.651Z,26.07
2019-02-16T22:41:38.418Z,27.37
2019-02-16T22:44:09.177Z,29.33
2019-02-16T22:46:39.949Z,32.67
2019-02-16T22:49:10.714Z,25.17
2019-02-16T22:51:41.480Z,28.57
2019-02-16T22:54:12.234Z,30.53
2019-02-16T22:56:43.005Z,28.53
2019-02-16T22:59:13.767Z,29.80
2019-02-16T23:01:44.538Z,27.30
2019-02-16T23:04:15.294Z,27.67
2019-02-16T23:06:46.060Z,29.80
2019-02-16T23:09:21.480Z,29.33
2019-02-16T23:11:52.259Z,30.60
2019-02-16T23:14:24.214Z,33.70
2019-02-16T23:16:55.353Z,31.42
2019-02-16T23:19:26.169Z,29.85
2019-02-16T23:21:57.081Z,29.20
2019-02-16T23:24:28.104Z,30.73
2019-02-16T23:26:59.087Z,33.53
2019-02-16T23:29:29.921Z,31.27
2019-02-16T23:32:01.090Z,28.47
2019-02-16T23:34:31.999Z,35.55
2019-02-16T23:37:02.936Z,30.67
2019-02-16T23:39:33.783Z,26.87
2019-02-16T23:42:04.842Z,31.23
2019-02-16T23:44:35.623Z,27.35
2019-02-16T23:47:06.545Z,27.60
2019-02-16T23:49:37.499Z,32.60
2019-02-16T23:52:08.335Z,29.07
2019-02-16T23:54:39.217Z,26.60
2019-02-16T23:57:10.057Z,28.80
2019-02-16T23:59:40.880Z,30.67
